Time;durP1;ratioP1;P1;durP2;ratioP2;P2;SDS_P1;SDS_P2;PMS_P1;PMS_P2;Temp;Humidity;BMP_temperature;BMP_pressure;BME280_temperature;BME280_humidity;BME280_pressure;Samples;Min_cycle;Max_cycle;Signal;HPM_P1;HPM_P2
2021/10/06 00:00:16;;;;;;;6.50;5.90;;;;;;;16.98;60.83;102479.69;5013207;28;103614;-87
2021/10/06 00:02:43;;;;;;;9.07;6.25;;;;;;;16.98;60.80;102482.44;5004373;28;102792;-86
2021/10/06 00:05:10;;;;;;;6.30;5.70;;;;;;;16.98;60.61;102479.69;5028595;27;102162;-86
2021/10/06 00:07:37;;;;;;;8.50;6.03;;;;;;;16.98;60.28;102479.69;5006610;28;102260;-86
2021/10/06 00:10:06;;;;;;;7.60;6.05;;;;;;;16.98;61.11;102479.69;5012851;28;102214;-86
2021/10/06 00:12:32;;;;;;;6.57;5.70;;;;;;;16.98;60.25;102476.09;5004710;28;104046;-86
2021/10/06 00:14:59;;;;;;;6.68;5.55;;;;;;;16.97;60.95;102472.53;5007737;28;102442;-87
2021/10/06 00:17:26;;;;;;;8.55;5.97;;;;;;;16.97;60.42;102472.53;5013599;28;102396;-87
2021/10/06 00:19:53;;;;;;;6.68;5.97;;;;;;;16.98;60.77;102474.19;5012725;28;102204;-86
2021/10/06 00:22:21;;;;;;;6.40;5.70;;;;;;;16.97;60.35;102478.03;5006605;28;103889;-86
2021/10/06 00:24:48;;;;;;;7.50;6.20;;;;;;;16.97;60.88;102483.53;5005600;28;102458;-86
2021/10/06 00:27:16;;;;;;;7.75;5.93;;;;;;;16.98;60.53;102478.88;5011446;28;102461;-85
2021/10/06 00:29:42;;;;;;;6.47;5.40;;;;;;;16.97;60.78;102478.03;5007966;28;102214;-86
2021/10/06 00:32:09;;;;;;;7.43;5.88;;;;;;;16.97;60.92;102475.28;5013009;28;102405;-86
2021/10/06 00:34:35;;;;;;;7.10;5.93;;;;;;;16.96;60.83;102476.41;5009655;28;102134;-86
2021/10/06 00:37:02;;;;;;;8.10;5.80;;;;;;;16.98;60.43;102473.34;5014388;28;102443;-85
2021/10/06 00:39:29;;;;;;;8.70;6.20;;;;;;;16.97;60.51;102471.72;5014815;28;101993;-85
2021/10/06 00:41:55;;;;;;;8.90;6.93;;;;;;;16.96;60.93;102470.91;5014020;28;102819;-85
2021/10/06 00:44:23;;;;;;;8.32;6.03;;;;;;;16.97;60.92;102472.53;5012119;28;102763;-85
2021/10/06 00:46:51;;;;;;;6.03;5.38;;;;;;;16.96;60.84;102470.91;5011147;28;102598;-85
2021/10/06 00:49:17;;;;;;;7.63;6.20;;;;;;;16.97;60.98;102468.97;5015257;28;102589;-85
2021/10/06 00:51:44;;;;;;;7.10;5.82;;;;;;;16.97;60.47;102471.72;5011142;28;104049;-85
2021/10/06 00:54:11;;;;;;;8.30;6.35;;;;;;;16.96;60.97;102470.06;5007050;28;102271;-84
2021/10/06 00:56:37;;;;;;;8.73;6.50;;;;;;;16.96;60.51;102470.91;5014602;28;102045;-85
2021/10/06 00:59:04;;;;;;;8.70;6.43;;;;;;;16.97;60.73;102460.72;5014393;28;102184;-85
2021/10/06 01:01:32;;;;;;;7.55;6.22;;;;;;;16.96;60.38;102470.91;5012131;28;102813;-85
2021/10/06 01:04:00;;;;;;;7.38;6.40;;;;;;;16.96;61.00;102470.91;5005835;28;102341;-84
2021/10/06 01:06:27;;;;;;;7.82;6.63;;;;;;;16.96;60.52;102475.56;5010677;28;102595;-84
2021/10/06 01:08:55;;;;;;;7.10;6.15;;;;;;;16.96;60.94;102475.56;5014412;28;102445;-84
2021/10/06 01:11:22;;;;;;;8.25;6.75;;;;;;;16.96;60.59;102481.06;5011155;28;102728;-85
2021/10/06 01:13:50;;;;;;;7.22;6.30;;;;;;;16.95;60.85;102469.25;5009011;28;102096;-88
2021/10/06 01:16:16;;;;;;;7.85;6.32;;;;;;;16.96;60.51;102473.66;5010793;28;102326;-87
2021/10/06 01:18:44;;;;;;;7.47;6.78;;;;;;;16.95;60.86;102474.75;5012266;28;102182;-88
2021/10/06 01:21:14;;;;;;;7.40;6.03;;;;;;;16.95;60.86;102463.75;5011209;28;102706;-86
2021/10/06 01:23:40;;;;;;;;;;;;;;;16.95;60.75;102468.41;5014015;28;102118;-82
2021/10/06 01:26:07;;;;;;;8.05;6.40;;;;;;;16.95;61.06;102462.91;5010110;28;102336;-82
2021/10/06 01:28:34;;;;;;;6.43;5.75;;;;;;;16.95;60.43;102458.25;5013330;28;102372;-82
2021/10/06 01:31:00;;;;;;;6.95;6.25;;;;;;;16.95;60.73;102452.75;5011087;28;103923;-82
2021/10/06 01:33:27;;;;;;;7.20;6.50;;;;;;;16.94;60.81;102453.81;5008636;28;102389;-82
2021/10/06 01:35:53;;;;;;;7.85;6.28;;;;;;;16.94;60.79;102456.56;5002448;28;102582;-84
2021/10/06 01:38:21;;;;;;;8.38;6.20;;;;;;;16.94;61.12;102451.06;5013311;28;103057;-84
2021/10/06 01:40:47;;;;;;;7.70;6.07;;;;;;;16.95;60.84;102457.41;5012437;28;103901;-84
2021/10/06 01:43:14;;;;;;;7.18;6.47;;;;;;;16.94;61.08;102456.56;5013433;28;102201;-85
2021/10/06 01:45:44;;;;;;;6.97;6.28;;;;;;;16.94;60.62;102467.59;5013202;28;102132;-83
2021/10/06 01:48:12;;;;;;;8.10;6.78;;;;;;;16.93;60.94;102454.94;5013939;28;102873;-83
2021/10/06 01:50:41;;;;;;;7.97;6.73;;;;;;;16.94;60.71;102470.31;5008305;28;103203;-83
2021/10/06 01:53:09;;;;;;;7.85;6.20;;;;;;;16.95;60.44;102465.66;5009471;28;105428;-83
2021/10/06 01:55:39;;;;;;;6.93;6.22;;;;;;;16.93;60.55;102460.44;5008445;28;102407;-83
2021/10/06 01:58:09;;;;;;;6.82;6.13;;;;;;;16.94;61.11;102472.25;5008561;28;103425;-83
2021/10/06 02:00:37;;;;;;;11.60;6.47;;;;;;;16.93;60.97;102471.44;5006273;28;103706;-83
2021/10/06 02:03:04;;;;;;;7.85;7.13;;;;;;;16.94;60.97;102475.81;5006197;28;102361;-87
2021/10/06 02:05:33;;;;;;;7.85;6.57;;;;;;;16.93;60.91;102471.44;5024134;28;102760;-85
2021/10/06 02:08:01;;;;;;;7.20;6.15;;;;;;;16.93;60.99;102465.94;5009849;28;102568;-86
2021/10/06 02:10:28;;;;;;;7.88;6.32;;;;;;;16.93;60.78;102465.13;5009764;28;103949;-86
2021/10/06 02:12:57;;;;;;;8.07;6.88;;;;;;;16.93;61.24;102470.63;5006867;28;102687;-86
2021/10/06 02:15:24;;;;;;;7.70;6.40;;;;;;;16.93;60.79;102471.44;5006577;28;102179;-86
2021/10/06 02:17:50;;;;;;;8.40;6.50;;;;;;;16.93;60.88;102471.44;5011630;28;102665;-86
2021/10/06 02:20:17;;;;;;;8.60;7.13;;;;;;;16.92;60.71;102475.28;5011343;28;104013;-86
2021/10/06 02:22:43;;;;;;;7.97;6.43;;;;;;;16.92;60.75;102475.28;5005988;28;102540;-86
2021/10/06 02:25:11;;;;;;;9.35;7.20;;;;;;;16.92;60.67;102475.28;5025234;28;102658;-87
2021/10/06 02:27:37;;;;;;;8.60;6.60;;;;;;;16.91;60.68;102476.38;5012882;28;102516;-86
2021/10/06 02:30:07;;;;;;;8.48;6.85;;;;;;;16.91;60.95;102473.63;5012048;28;102718;-87
2021/10/06 02:32:34;;;;;;;7.32;6.57;;;;;;;16.92;61.13;102474.47;5006920;28;102511;-86
2021/10/06 02:35:01;;;;;;;8.73;6.68;;;;;;;16.91;60.58;102468.13;5016577;28;101944;-86
2021/10/06 02:37:27;;;;;;;9.20;6.72;;;;;;;16.92;60.96;102469.78;5016722;28;103254;-86
2021/10/06 02:39:54;;;;;;;7.40;6.40;;;;;;;16.92;60.96;102469.78;5016934;28;103146;-87
2021/10/06 02:42:21;;;;;;;8.65;6.75;;;;;;;16.92;60.97;102471.72;5023156;28;101942;-85
2021/10/06 02:44:48;;;;;;;8.35;7.00;;;;;;;16.92;60.63;102474.47;5017569;28;102168;-85
2021/10/06 02:47:15;;;;;;;8.80;6.63;;;;;;;16.92;60.66;102480.78;5017527;28;102519;-85
2021/10/06 02:49:42;;;;;;;8.18;7.00;;;;;;;16.91;60.66;102473.63;5005620;28;104187;-85
2021/10/06 02:52:08;;;;;;;7.55;6.75;;;;;;;16.90;60.67;102477.47;5011212;28;102367;-84
2021/10/06 02:54:35;;;;;;;9.15;6.50;;;;;;;16.91;60.75;102483.78;5005657;28;102892;-85
2021/10/06 02:57:04;;;;;;;9.85;6.95;;;;;;;16.90;60.95;102482.97;5013647;28;102315;-84
2021/10/06 02:59:31;;;;;;;8.48;7.28;;;;;;;16.90;60.95;102493.97;5013966;28;102542;-85
2021/10/06 03:01:58;;;;;;;7.90;6.10;;;;;;;16.91;60.61;102495.63;5018527;28;103283;-86
2021/10/06 03:04:26;;;;;;;7.30;6.55;;;;;;;16.90;61.20;102493.97;5011065;28;102268;-85
2021/10/06 03:06:54;;;;;;;7.27;6.27;;;;;;;16.90;60.83;102499.47;5009199;28;102341;-85
2021/10/06 03:09:20;;;;;;;7.22;6.32;;;;;;;16.90;61.09;102498.66;5010600;28;103862;-87
2021/10/06 03:11:47;;;;;;;7.40;6.60;;;;;;;16.91;60.70;102508.53;5015572;28;102300;-87
2021/10/06 03:14:14;;;;;;;7.78;6.10;;;;;;;16.90;61.18;102504.97;5005480;28;102669;-87
2021/10/06 03:16:40;;;;;;;7.18;6.32;;;;;;;16.90;60.99;102515.97;5013368;28;102207;-86
2021/10/06 03:19:07;;;;;;;8.75;6.50;;;;;;;16.90;61.20;102515.16;5008496;28;104121;-87
2021/10/06 03:21:35;;;;;;;8.15;6.25;;;;;;;16.89;61.11;102508.00;5007695;28;102194;-85
2021/10/06 03:24:02;;;;;;;7.78;6.75;;;;;;;16.90;60.98;102515.97;5016549;28;102279;-88
2021/10/06 03:26:29;;;;;;;6.68;6.07;;;;;;;16.90;60.83;102510.47;5005009;28;102209;-88
2021/10/06 03:28:57;;;;;;;6.85;6.15;;;;;;;16.89;61.10;102508.00;5013464;28;102375;-88
2021/10/06 03:31:23;;;;;;;7.00;6.22;;;;;;;16.89;61.00;102503.34;5013363;28;101948;-89
2021/10/06 03:33:50;;;;;;;6.70;6.10;;;;;;;16.89;60.98;102506.09;5008046;28;102508;-89
2021/10/06 03:36:16;;;;;;;6.80;6.10;;;;;;;16.90;61.18;102499.47;5009537;28;102240;-87
2021/10/06 03:38:44;;;;;;;6.97;6.28;;;;;;;16.90;61.24;102504.97;5017160;28;102717;-83
2021/10/06 03:41:10;;;;;;;6.82;6.13;;;;;;;16.89;60.95;102503.34;5017250;28;102166;-83
2021/10/06 03:43:37;;;;;;;7.85;6.03;;;;;;;16.90;61.12;102498.66;5009219;28;102140;-84
2021/10/06 03:46:03;;;;;;;6.60;6.00;;;;;;;16.89;60.81;102508.84;5016356;28;102611;-83
2021/10/06 03:48:30;;;;;;;8.32;6.82;;;;;;;16.89;60.66;102508.00;5009228;28;103859;-83
2021/10/06 03:50:57;;;;;;;7.35;6.13;;;;;;;16.89;60.94;102510.75;5016016;28;101995;-84
2021/10/06 03:53:23;;;;;;;7.68;6.88;;;;;;;16.88;61.33;102511.84;5015508;28;103183;-84
2021/10/06 03:55:52;;;;;;;7.00;6.30;;;;;;;16.88;60.77;102507.19;5014549;28;102878;-84
2021/10/06 03:58:19;;;;;;;6.80;5.90;;;;;;;16.88;60.79;102515.44;5013182;28;102620;-83
2021/10/06 04:00:45;;;;;;;7.22;6.38;;;;;;;16.89;61.38;102508.00;5011809;28;102698;-84
2021/10/06 04:03:13;;;;;;;8.02;6.28;;;;;;;16.88;60.71;102507.19;5010220;28;102268;-84
2021/10/06 04:05:40;;;;;;;6.38;5.78;;;;;;;16.88;60.84;102512.69;5015826;28;102702;-83
2021/10/06 04:08:08;;;;;;;6.90;6.00;;;;;;;16.89;61.36;102513.50;5006142;28;103665;-84
2021/10/06 04:10:34;;;;;;;6.60;6.00;;;;;;;16.88;61.14;102518.19;5004472;28;102368;-84
2021/10/06 04:13:03;;;;;;;6.40;5.80;;;;;;;16.88;61.39;102520.94;5012434;28;102200;-84
2021/10/06 04:15:30;;;;;;;6.35;5.70;;;;;;;16.87;60.75;102516.50;5013024;28;102269;-84
2021/10/06 04:17:57;;;;;;;7.40;6.30;;;;;;;16.88;60.97;102511.84;5014350;28;103361;-84
2021/10/06 04:20:23;;;;;;;6.38;5.70;;;;;;;16.87;61.03;102505.50;5011118;28;102089;-84
2021/10/06 04:22:50;;;;;;;6.32;5.72;;;;;;;16.88;60.77;102518.19;5006803;28;102191;-84
2021/10/06 04:25:16;;;;;;;6.78;6.07;;;;;;;16.88;60.87;102518.19;5007961;28;102403;-83
2021/10/06 04:27:43;;;;;;;6.05;5.45;;;;;;;16.87;61.31;102527.50;5008712;28;104080;-84
2021/10/06 04:30:12;;;;;;;6.22;5.63;;;;;;;16.88;61.27;102529.19;5011389;28;102549;-83
2021/10/06 04:32:41;;;;;;;6.32;5.47;;;;;;;16.88;61.18;102528.34;5011050;28;102317;-83
2021/10/06 04:35:09;;;;;;;6.75;5.97;;;;;;;16.87;60.73;102522.00;5013200;28;103410;-83
2021/10/06 04:37:36;;;;;;;9.85;5.88;;;;;;;16.87;60.75;102530.25;5009754;28;104147;-83
2021/10/06 04:40:05;;;;;;;6.85;5.60;;;;;;;16.87;60.96;102522.00;5012783;28;102484;-83
2021/10/06 04:42:39;;;;;;;7.05;6.15;;;;;;;16.87;61.01;102516.50;5008874;28;102384;-82
2021/10/06 04:45:06;;;;;;;6.15;5.55;;;;;;;16.87;60.80;102516.50;5012719;28;102242;-83
2021/10/06 04:47:34;;;;;;;6.28;5.68;;;;;;;16.87;60.98;102522.00;5004296;28;103208;-83
2021/10/06 04:50:01;;;;;;;6.93;5.53;;;;;;;16.87;60.94;102522.00;5007227;28;102354;-83
2021/10/06 04:52:29;;;;;;;6.32;5.60;;;;;;;16.87;60.93;102519.25;5007139;28;102090;-82
2021/10/06 04:54:56;;;;;;;5.80;5.28;;;;;;;16.87;61.24;102505.50;5012025;28;102491;-85
2021/10/06 04:57:22;;;;;;;5.95;5.35;;;;;;;16.86;61.26;102512.13;5011026;28;102663;-86
2021/10/06 04:59:49;;;;;;;6.55;5.78;;;;;;;16.86;61.35;102509.38;5009712;28;102570;-86
2021/10/06 05:02:16;;;;;;;6.25;5.40;;;;;;;16.87;60.84;102504.69;5010511;28;102113;-86
2021/10/06 05:04:44;;;;;;;8.05;5.95;;;;;;;16.86;60.87;102509.38;5014353;28;102180;-86
2021/10/06 05:07:11;;;;;;;6.13;5.18;;;;;;;16.86;60.87;102512.13;5005843;28;102686;-86
2021/10/06 05:09:38;;;;;;;7.55;5.47;;;;;;;16.87;61.48;102511.00;5011145;28;102605;-86
2021/10/06 05:12:04;;;;;;;5.90;5.30;;;;;;;16.87;61.14;102511.00;5013216;28;102624;-85
2021/10/06 05:14:31;;;;;;;9.82;6.53;;;;;;;16.86;61.42;102509.38;5014145;28;102328;-84
2021/10/06 05:16:58;;;;;;;6.13;5.55;;;;;;;16.86;61.23;102511.28;5006622;28;103961;-84
2021/10/06 05:19:25;;;;;;;6.22;5.50;;;;;;;16.86;61.29;102520.38;5010106;28;102187;-84
2021/10/06 05:21:53;;;;;;;11.73;5.90;;;;;;;16.87;61.49;102511.00;5005442;28;102393;-83
2021/10/06 05:24:20;;;;;;;6.55;5.60;;;;;;;16.87;61.27;102510.19;5020585;28;102175;-83
2021/10/06 05:26:46;;;;;;;6.40;5.80;;;;;;;16.86;61.36;102509.38;5010411;28;103794;-83
2021/10/06 05:29:13;;;;;;;6.82;6.03;;;;;;;16.86;61.19;102514.88;5009967;28;102364;-83
2021/10/06 05:31:42;;;;;;;7.10;5.97;;;;;;;16.86;61.35;102508.53;5012029;28;102074;-84
2021/10/06 05:34:09;;;;;;;5.65;5.15;;;;;;;16.86;60.85;102509.38;5012829;28;102223;-84
2021/10/06 05:36:35;;;;;;;6.60;5.47;;;;;;;16.86;61.13;102514.03;5006799;28;103003;-84
2021/10/06 05:39:06;;;;;;;6.13;5.43;;;;;;;16.85;61.11;102510.47;5010426;28;103944;-84
2021/10/06 05:41:32;;;;;;;5.45;4.50;;;;;;;16.86;61.33;102517.63;5011309;28;102655;-85
2021/10/06 05:43:59;;;;;;;5.20;4.70;;;;;;;16.85;60.83;102513.22;5001568;28;102406;-84
2021/10/06 05:46:27;;;;;;;5.45;4.95;;;;;;;16.85;61.20;102504.16;5013085;27;102776;-84
2021/10/06 05:48:53;;;;;;;7.78;6.10;;;;;;;16.85;61.44;102512.41;5007917;28;102204;-84
2021/10/06 05:51:20;;;;;;;5.47;4.85;;;;;;;16.84;61.33;102522.56;5008721;28;103225;-85
2021/10/06 05:53:47;;;;;;;6.07;5.10;;;;;;;16.84;61.22;102508.81;5004329;28;102496;-84
2021/10/06 05:56:15;;;;;;;5.93;5.38;;;;;;;16.84;61.30;102516.22;4999791;28;103855;-84
2021/10/06 05:58:42;;;;;;;7.37;5.47;;;;;;;16.84;61.33;102519.81;5008323;28;102509;-86
2021/10/06 06:01:10;;;;;;;4.87;4.33;;;;;;;16.85;61.22;102515.97;5002741;28;102994;-87
2021/10/06 06:03:37;;;;;;;5.50;5.00;;;;;;;16.84;60.97;102521.72;5011076;28;102283;-85
2021/10/06 06:06:04;;;;;;;6.18;5.40;;;;;;;16.84;61.22;102511.56;5007527;28;103858;-85
2021/10/06 06:08:33;;;;;;;5.53;4.93;;;;;;;16.83;61.08;102509.91;5006942;28;102189;-85
2021/10/06 06:11:00;;;;;;;6.10;5.22;;;;;;;16.84;60.98;102517.06;5011455;28;101874;-88
2021/10/06 06:13:28;;;;;;;5.50;5.00;;;;;;;16.83;61.28;102504.41;5006106;28;103481;-86
2021/10/06 06:15:55;;;;;;;7.45;5.45;;;;;;;16.83;61.34;102509.91;5003854;28;104975;-86
2021/10/06 06:18:22;;;;;;;7.63;5.93;;;;;;;16.82;60.96;102513.75;5008598;28;102076;-85
2021/10/06 06:20:48;;;;;;;6.50;5.30;;;;;;;16.83;61.03;102517.31;5007542;28;102168;-85
2021/10/06 06:23:22;;;;;;;6.35;5.40;;;;;;;16.82;60.99;102511.00;5006340;28;102629;-87
2021/10/06 06:25:50;;;;;;;6.88;6.15;;;;;;;16.82;61.11;102522.00;5004721;28;103144;-86
2021/10/06 06:28:17;;;;;;;6.28;5.68;;;;;;;16.83;60.98;102520.06;5010846;28;102770;-85
2021/10/06 06:30:45;;;;;;;7.13;5.35;;;;;;;16.82;61.05;102516.50;5008490;28;103680;-84
2021/10/06 06:33:12;;;;;;;9.07;6.05;;;;;;;16.81;61.47;102520.34;5005073;28;102265;-83
2021/10/06 06:35:38;;;;;;;6.10;5.13;;;;;;;16.81;61.49;102509.38;5002633;28;102708;-85
2021/10/06 06:38:05;;;;;;;6.70;5.90;;;;;;;16.82;61.01;102516.50;5002309;28;102579;-85
2021/10/06 06:40:32;;;;;;;7.03;5.35;;;;;;;16.80;61.17;102522.28;5009952;28;102296;-85
2021/10/06 06:42:58;;;;;;;7.15;5.47;;;;;;;16.80;61.58;102521.44;5000730;28;102531;-86
2021/10/06 06:45:25;;;;;;;6.43;5.07;;;;;;;16.80;61.65;102530.53;5007353;28;102503;-85
2021/10/06 06:47:53;;;;;;;6.88;5.38;;;;;;;16.80;61.56;102532.44;5006818;28;102260;-83
2021/10/06 06:50:21;;;;;;;7.47;5.15;;;;;;;16.79;61.15;102517.03;5004902;28;102105;-84
2021/10/06 06:52:48;;;;;;;9.57;5.47;;;;;;;16.79;61.44;102522.53;5009490;28;102538;-83
2021/10/06 06:55:14;;;;;;;9.15;5.80;;;;;;;16.77;61.32;102516.50;5004102;28;104070;-84
2021/10/06 06:57:41;;;;;;;9.48;5.90;;;;;;;16.77;60.84;102522.81;5003018;28;102150;-81
2021/10/06 07:00:09;;;;;;;6.90;4.65;;;;;;;16.78;60.92;102529.13;5004995;28;104469;-84
2021/10/06 07:02:35;;;;;;;8.68;5.60;;;;;;;16.77;60.99;102533.00;5010674;28;102704;-83
2021/10/06 07:05:04;;;;;;;8.02;4.30;;;;;;;16.75;61.09;102536.00;5005575;28;102708;-84
2021/10/06 07:07:30;;;;;;;10.27;5.43;;;;;;;16.76;60.74;102531.31;5004409;28;102238;-87
2021/10/06 07:09:57;;;;;;;8.93;4.78;;;;;;;16.75;60.96;102540.69;5010516;28;102131;-87
2021/10/06 07:12:24;;;;;;;5.07;4.32;;;;;;;16.74;60.64;102544.53;5015817;28;102436;-87
2021/10/06 07:14:51;;;;;;;6.88;4.78;;;;;;;16.74;60.34;102528.03;5004718;28;104391;-86
2021/10/06 07:17:18;;;;;;;6.00;4.30;;;;;;;16.74;60.18;102542.59;5013810;28;102250;-87
2021/10/06 07:19:48;;;;;;;6.80;4.50;;;;;;;16.73;60.39;102531.81;5011602;28;103155;-87
2021/10/06 07:22:17;;;;;;;6.72;4.85;;;;;;;16.74;60.42;102550.03;5020190;28;102524;-87
2021/10/06 07:24:44;;;;;;;8.93;4.28;;;;;;;16.73;60.65;102543.69;5012488;28;103032;-86
2021/10/06 07:27:11;;;;;;;4.45;4.05;;;;;;;16.73;60.23;102531.81;5007246;28;102089;-88
2021/10/06 07:29:38;;;;;;;7.30;4.32;;;;;;;16.74;60.22;102544.53;5007720;28;102119;-91
2021/10/06 07:32:05;;;;;;;7.75;4.70;;;;;;;16.73;60.34;102542.81;5008040;28;102126;-89
2021/10/06 07:34:33;;;;;;;8.27;4.53;;;;;;;16.73;60.33;102546.41;5009230;28;102775;-88
2021/10/06 07:36:59;;;;;;;5.57;4.18;;;;;;;16.73;59.84;102540.06;5015666;28;102099;-85
2021/10/06 07:39:27;;;;;;;10.27;3.95;;;;;;;16.74;60.29;102539.84;5010830;28;102416;-87
2021/10/06 07:41:54;;;;;;;7.72;3.72;;;;;;;16.73;60.39;102540.06;5012228;28;102242;-87
2021/10/06 07:44:21;;;;;;;5.15;4.13;;;;;;;16.73;60.18;102548.31;5010584;28;104559;-86
2021/10/06 07:46:49;;;;;;;6.72;3.58;;;;;;;16.73;59.57;102551.06;5013633;28;102701;-87
2021/10/06 07:49:16;;;;;;;7.53;3.73;;;;;;;16.73;60.01;102549.16;5011156;28;102617;-86
2021/10/06 07:51:42;;;;;;;5.82;3.55;;;;;;;16.73;59.44;102553.81;5012402;28;102270;-86
2021/10/06 07:54:08;;;;;;;6.82;4.03;;;;;;;16.73;59.73;102542.81;5007089;28;104185;-86
2021/10/06 07:56:36;;;;;;;6.43;3.90;;;;;;;16.72;59.27;102539.25;5009565;28;102699;-85
2021/10/06 07:59:03;;;;;;;9.20;3.97;;;;;;;16.73;59.44;102534.56;5010535;28;102160;-88
2021/10/06 08:01:30;;;;;;;8.25;3.90;;;;;;;16.74;59.52;102539.03;5012525;28;102104;-84
2021/10/06 08:03:56;;;;;;;6.13;3.50;;;;;;;16.73;59.60;102537.31;5012510;28;102872;-84
2021/10/06 08:06:23;;;;;;;9.60;3.47;;;;;;;16.72;59.35;102530.19;5013658;28;102722;-84
2021/10/06 08:08:49;;;;;;;8.75;3.72;;;;;;;16.73;59.22;102531.81;5014286;28;102634;-81
2021/10/06 08:11:16;;;;;;;7.25;3.80;;;;;;;16.74;59.03;102539.03;5012012;28;102465;-81
2021/10/06 08:13:45;;;;;;;5.88;3.97;;;;;;;16.74;59.00;102539.03;5009037;28;104487;-83
2021/10/06 08:16:11;;;;;;;9.30;3.42;;;;;;;16.72;58.55;102531.00;5010519;28;102483;-82
2021/10/06 08:18:38;;;;;;;8.07;3.10;;;;;;;16.74;58.51;102536.28;5010296;28;102227;-82
2021/10/06 08:21:04;;;;;;;6.78;3.42;;;;;;;16.73;58.90;102532.69;5009157;28;102990;-83
2021/10/06 08:23:31;;;;;;;9.48;4.05;;;;;;;16.73;58.84;102531.81;5007458;28;102634;-83
2021/10/06 08:25:58;;;;;;;4.93;3.42;;;;;;;16.75;58.33;102535.19;5005670;28;103247;-83
2021/10/06 08:28:25;;;;;;;8.30;3.95;;;;;;;16.74;58.72;102522.53;5010427;28;102717;-83
2021/10/06 08:30:53;;;;;;;14.88;4.25;;;;;;;16.74;58.83;102526.09;5002264;28;102388;-82
2021/10/06 08:33:20;;;;;;;9.30;3.45;;;;;;;16.75;58.43;102524.19;5013054;28;104468;-83
2021/10/06 08:35:46;;;;;;;16.08;3.60;;;;;;;16.75;58.27;102524.19;5012356;28;102822;-84
2021/10/06 08:38:13;;;;;;;13.43;4.22;;;;;;;16.74;57.91;102537.09;5005878;28;103621;-84
2021/10/06 08:40:39;;;;;;;9.50;3.35;;;;;;;16.73;58.03;102527.19;5012765;28;102437;-86
2021/10/06 08:43:09;;;;;;;11.02;3.47;;;;;;;16.72;57.90;102525.50;5011366;28;103728;-87
2021/10/06 08:45:37;;;;;;;8.25;3.40;;;;;;;16.73;58.21;102518.94;5009509;28;103400;-87
2021/10/06 08:48:09;;;;;;;8.60;3.90;;;;;;;16.74;57.85;102519.78;5013179;28;102284;-91
2021/10/06 08:50:37;;;;;;;10.73;3.10;;;;;;;16.74;57.50;102528.03;5009109;28;102182;-84
2021/10/06 08:53:04;;;;;;;9.80;3.40;;;;;;;16.73;57.78;102518.06;5012711;28;102361;-87
2021/10/06 08:55:31;;;;;;;11.68;3.22;;;;;;;16.72;57.67;102520.00;5007726;28;102487;-92
2021/10/06 08:57:59;;;;;;;6.78;3.30;;;;;;;16.73;57.26;102534.56;5010413;28;102285;-89
2021/10/06 09:00:26;;;;;;;5.75;3.28;;;;;;;16.72;57.54;102536.50;5013041;28;103604;-86
2021/10/06 09:02:52;;;;;;;8.20;3.33;;;;;;;16.71;57.49;102518.34;5013746;28;102704;-87
2021/10/06 09:05:22;;;;;;;4.55;2.63;;;;;;;16.71;56.80;102525.78;5013258;28;102281;-90
2021/10/06 09:07:56;;;;;;;5.47;2.53;;;;;;;16.71;57.03;102520.28;5010115;28;102465;-87
2021/10/06 09:10:24;;;;;;;6.28;2.92;;;;;;;16.70;56.95;102521.38;5015327;28;102430;-89
2021/10/06 09:12:56;;;;;;;5.22;3.08;;;;;;;16.70;57.01;102515.88;5012423;28;102736;-87
2021/10/06 09:15:23;;;;;;;7.53;2.60;;;;;;;16.70;56.64;102510.38;5011859;28;102162;-88
2021/10/06 09:17:55;;;;;;;6.70;2.90;;;;;;;16.69;57.07;102515.03;5007872;28;102766;-88
2021/10/06 09:20:33;;;;;;;6.78;2.53;;;;;;;16.67;56.55;102505.44;5013198;28;102618;-86
2021/10/06 09:23:03;;;;;;;4.40;2.47;;;;;;;16.67;56.93;102505.44;4998927;28;103882;-87
2021/10/06 09:25:36;;;;;;;4.97;2.70;;;;;;;16.66;56.48;102510.09;5020970;27;102611;-89
2021/10/06 09:28:06;;;;;;;6.10;2.35;;;;;;;16.65;56.64;102493.84;5010694;28;102325;-91
2021/10/06 09:30:33;;;;;;;4.72;2.30;;;;;;;16.64;56.19;102486.72;5003340;28;103620;-89
2021/10/06 09:33:01;;;;;;;9.73;2.63;;;;;;;16.64;55.92;102495.78;5008323;28;103882;-91
2021/10/06 09:35:29;;;;;;;4.60;2.40;;;;;;;16.63;56.30;102509.81;5011901;28;102415;-88
2021/10/06 09:37:57;;;;;;;8.07;2.47;;;;;;;16.63;56.46;102505.13;5013690;28;102068;-86
2021/10/06 09:40:25;;;;;;;3.35;2.50;;;;;;;16.63;56.55;102493.31;5013672;28;102224;-87
2021/10/06 09:42:53;;;;;;;5.00;3.10;;;;;;;16.64;56.01;102503.22;5009325;28;102752;-86
2021/10/06 09:45:21;;;;;;;6.22;2.45;;;;;;;16.64;56.19;102517.78;5007451;28;102470;-86
2021/10/06 09:48:03;;;;;;;5.53;2.40;;;;;;;16.63;55.92;102515.31;5006361;28;102938;-87
2021/10/06 09:50:35;;;;;;;4.53;2.38;;;;;;;16.63;55.99;102507.88;5004650;28;102462;-87
2021/10/06 09:53:06;;;;;;;2.65;2.40;;;;;;;16.63;56.12;102515.31;5005671;28;103358;-88
2021/10/06 09:55:34;;;;;;;4.82;2.70;;;;;;;16.63;56.48;102507.06;5011293;28;102251;-88
2021/10/06 09:58:01;;;;;;;5.03;2.42;;;;;;;16.64;56.29;102505.97;5005841;28;102494;-87
2021/10/06 10:00:28;;;;;;;4.22;2.53;;;;;;;16.63;56.61;102507.06;5001350;28;102160;-88
2021/10/06 10:02:57;;;;;;;4.05;2.15;;;;;;;16.63;56.07;102501.56;5007609;28;102774;-87
2021/10/06 10:05:23;;;;;;;5.45;2.55;;;;;;;16.64;56.65;102516.94;5007381;28;102182;-87
2021/10/06 10:07:53;;;;;;;3.30;2.15;;;;;;;16.64;56.49;102505.97;5007620;28;102599;-88
2021/10/06 10:10:20;;;;;;;4.43;2.50;;;;;;;16.64;56.42;102511.47;5014242;28;102411;-88
2021/10/06 10:12:47;;;;;;;5.28;2.80;;;;;;;16.65;56.58;102502.09;5004450;28;102710;-87
2021/10/06 10:15:16;;;;;;;4.90;2.00;;;;;;;16.65;56.24;102504.84;5001143;28;102407;-91
2021/10/06 10:17:43;;;;;;;3.90;2.33;;;;;;;16.65;56.40;102496.59;5022080;27;102220;-91
2021/10/06 10:20:13;;;;;;;5.25;2.75;;;;;;;16.65;56.31;102505.69;5006820;28;102617;-90
2021/10/06 10:22:40;;;;;;;;;;;;;;;16.67;56.22;102516.41;5006509;28;103634;-89
2021/10/06 10:25:21;;;;;;;4.75;2.38;;;;;;;16.67;56.93;102510.94;5005216;28;102287;-90
2021/10/06 10:28:02;;;;;;;3.70;2.65;;;;;;;16.66;56.54;102506.50;5008603;28;102235;-87
2021/10/06 10:33:46;;;;;;;4.45;2.20;;;;;;;16.67;56.92;102500.75;5009364;22;103321;-49
2021/10/06 10:36:45;;;;;;;4.05;2.30;;;;;;;16.67;57.14;102505.44;5009344;28;102210;-48
2021/10/06 10:39:49;;;;;;;2.58;2.00;;;;;;;16.67;56.81;102502.69;4976846;28;102947;-48
2021/10/06 10:42:17;;;;;;;4.63;2.45;;;;;;;16.67;57.31;102491.69;4970519;28;103736;-49
2021/10/06 10:44:46;;;;;;;4.13;2.20;;;;;;;16.67;57.03;102480.69;5009049;28;104155;-49
2021/10/06 10:47:13;;;;;;;3.97;2.28;;;;;;;16.67;57.01;102486.19;5006102;28;103256;-48
2021/10/06 10:49:44;;;;;;;3.65;2.40;;;;;;;16.67;57.08;102480.69;5004165;28;102304;-49
2021/10/06 10:52:11;;;;;;;3.63;2.30;;;;;;;16.68;57.14;102488.66;5013514;28;102551;-48
2021/10/06 10:54:39;;;;;;;4.22;2.38;;;;;;;16.67;56.82;102477.94;5006052;28;104790;-48
2021/10/06 10:57:18;;;;;;;2.30;2.10;;;;;;;16.69;57.31;102481.22;5015080;28;102567;-49
2021/10/06 10:59:47;;;;;;;2.58;2.15;;;;;;;16.69;56.86;102486.72;5006447;28;102926;-49
2021/10/06 11:02:19;;;;;;;3.42;1.95;;;;;;;16.68;57.19;102485.09;5013786;27;102436;-48
2021/10/06 11:04:53;;;;;;;3.47;2.20;;;;;;;16.69;57.28;102481.22;5013126;28;103898;-48
2021/10/06 11:07:23;;;;;;;3.30;2.25;;;;;;;16.68;57.44;102472.16;5004074;28;102147;-48
2021/10/06 11:09:52;;;;;;;3.38;2.25;;;;;;;16.68;57.03;102479.59;5007762;28;102690;-48
2021/10/06 11:12:37;;;;;;;4.57;2.15;;;;;;;16.68;57.15;102476.84;5005969;28;103721;-49
2021/10/06 11:15:25;;;;;;;3.92;2.33;;;;;;;16.69;57.08;102470.22;5004374;27;104133;-48
2021/10/06 11:18:25;;;;;;;3.60;1.93;;;;;;;16.69;56.88;102483.97;5001776;28;102449;-49
2021/10/06 11:20:58;;;;;;;3.22;2.30;;;;;;;16.69;56.89;102475.72;4980719;28;102615;-49
2021/10/06 11:23:53;;;;;;;4.75;2.10;;;;;;;16.69;57.31;102467.47;5014314;28;102126;-49